Elkins-Randolph Co-Jennings Randolph Field
KEKN : now visible

Airfield :











YOU CAN JOIN US ON...

 
LOGIN :

Register | Disclaimer

   EN    FR    IT 

 









Legend :    VFR   Marginal VFR   IFR   Intensive IFR   Very Intensive IFR
Visi :
Ceiling :
>= 8 km
>= 3000ft
5 to 8 km
1000 to 3000 ft
1500m to 5 km
500 to 1000 ft
800 to 1500m
200 to 500 ft
< 800m
< 200 ft
Symbols :   Thunderstorms  Fog  Heavy snow  Heavy precipitations  Wind > 20 kt






- Airport Elevation : 1987 ft


KEKN - Elkins-Randolph Co-Jennings Randolph Field

CURRENT METAR :
  • 031351Z AUTO 00000KT 10SM CLR 18/16 A3013 RMK AO2 SLP196 T01830156

EXPIRED METARs :
  • 031251Z AUTO 00000KT 10SM SCT003 17/15 A3013 RMK AO2 SLP197 T01720150
  • 031201Z AUTO 00000KT 10SM SCT003 16/14 A3013 RMK AO2 T01610144
  • 031151Z AUTO 00000KT 10SM BKN003 16/14 A3013 RMK AO2 SLP196 T01610144 10161 20144 51010

TAF KEKN
Valid from the 03 at 12:00 until the 04 at 12:00 UTC


031124Z 0312/0412 00000KT P6SM FEW005
FM031300 VRB03KT P6SM BKN045
TEMPO 0315/0317 -SHRA
FM031700 19004KT P6SM VCTS BKN060CB
TEMPO 0317/0321 4SM -SHRA BR BKN035
FM040000 15004KT P6SM BKN080
FM040600 00000KT P6SM BKN025
FM040800 00000KT 5SM BR BKN015
KZDC FIR / North America



MET'MAP, your aeronautical weather chart ! - Copyright ORBIFLY December 2007 - Disclaimer

ORBIFLY MET'MAP TEAM :

Programming & Development : Alexandra Zaïnal
Concept & original design : Baudouin d'Aumeries
Assistance for programming : Marc-Olivier Méhu
Technical & hardware support : Manuel Goepfert

Contact : metmap@orbifly.com




SOURCES & CREDITS :

   NOAA       Earth
Advisory